Aviation Digital Data Service (ADDS)

Output produced by METARs form (0904 UTC 18 February 2019)
found at http://www.aviationweather.gov/metar/data/
 
Forecast for: ZSQD (QINGDAO/TSINGTAO, CN)
Text: TAF ZSQD 180312Z 1806/1906 16005MPS 5000 -RASN BKN040 TX06/1806Z TNM01/21Z
Forecast period: 0600 to 1300 UTC 18 February 2019
Forecast type: FROM: standard forecast or significant change
Winds: from the SSE (160 degrees) at 12 MPH (10 knots; 5.1 m/s)
Visibility: 3 miles (5 km)
Ceiling: 4000 feet AGL
Clouds: broken clouds at 4000 feet AGL
Weather: -RA -SN  (light rain, light snow)
Text: BECMG 1813/1814 02003MPS
Forecast period: 1300 UTC 18 February 2019 to 0600 UTC 19 February 2019
Forecast type: BECOMING: Conditions expected to become as follows by 1400 UTC 18 February 2019
Winds: from the NNE (20 degrees) at 7 MPH (6 knots; 3.1 m/s)
Visibility: 3 miles (5 km)
Ceiling: 4000 feet AGL
Clouds: broken clouds at 4000 feet AGL
Weather: -RA -SN  (light rain, light snow)